Portada
METAR-TAF:

METAR-TAF

Aeropuertos :

Gran Canaria, España

Aeropuerto de Gran Canaria

latitud: 27-56N, longitud: 015-23W, altitud: 23 m

Observación

El informe se hizo hace 41 minutos, a las 06:00 UTC
Viento 11 kt del norte
Temperatura 16°C
Humedad 68%
Presión 1025 hPa
Visibilidad 10 km o más
Escasas nubes a una altura de 3500 ft
Cielo nuboso a una altura de 4500 ft

METAR: GCLP 190600Z 36011KT 9999 FEW035 BKN045 16/10 Q1025 NOSIG

Hora: 06:41 (06:41 UTC)

Pronóstico

El informe se hizo hace 4 horas y 41 minutos, a las 02:00 UTC
Pronóstico válido del 19 a las 03 UTC al 20 a las 03 UTC
Viento 15 kt del norte
Visibilidad 10 km o más
Nubes dispersas a una altura de 3000 ft

TAF: GCLP 190200Z 1903/2003 36015KT 9999 SCT030 TX20/1914Z TN16/1906Z

Observaciones y pronósticos meteorológicos de más de 4000 aeropuertos (mensajes METAR y TAF).

Los puntos amarillos y rojos representan las estaciones disponibles.

Ponga el ratón en el punto deseado para ver el nombre de la estación.

Haga clic para ver las observaciones y los pronósticos meteorológicos.

Para cambiar el mapa : haga clic en los botones verdes con una cruz de color negro para hacer un zoom, en el botón verde con un guión para alejar o en las flechas verdes para mapas adyacentes.


METAR-TAF: